sensor_id;sensor_type;location;lat;lon;timestamp;pressure;altitude;pressure_sealevel;temperature;humidity
43707;BME280;61348;53.392;-6.248;2023-05-07T00:01:28;100596.94;;;14.04;81.73
43707;BME280;61348;53.392;-6.248;2023-05-07T00:03:54;100594.56;;;14.02;81.67
43707;BME280;61348;53.392;-6.248;2023-05-07T00:06:22;100602.84;;;13.99;81.97
43707;BME280;61348;53.392;-6.248;2023-05-07T00:08:49;100606.75;;;13.94;82.22
43707;BME280;61348;53.392;-6.248;2023-05-07T00:11:16;100606.31;;;13.92;82.22
43707;BME280;61348;53.392;-6.248;2023-05-07T00:13:42;100613.03;;;13.91;82.32
43707;BME280;61348;53.392;-6.248;2023-05-07T00:16:09;100599.47;;;13.90;82.37
43707;BME280;61348;53.392;-6.248;2023-05-07T00:18:36;100600.69;;;13.89;82.55
43707;BME280;61348;53.392;-6.248;2023-05-07T00:21:03;100605.44;;;13.88;82.65
43707;BME280;61348;53.392;-6.248;2023-05-07T00:23:30;100606.16;;;13.85;82.62
43707;BME280;61348;53.392;-6.248;2023-05-07T00:25:56;100605.66;;;13.80;82.78
43707;BME280;61348;53.392;-6.248;2023-05-07T00:28:25;100606.84;;;13.79;82.93
43707;BME280;61348;53.392;-6.248;2023-05-07T00:30:52;100601.59;;;13.74;82.87
43707;BME280;61348;53.392;-6.248;2023-05-07T00:33:19;100606.66;;;13.68;83.17
43707;BME280;61348;53.392;-6.248;2023-05-07T00:35:47;100618.09;;;13.63;83.09
43707;BME280;61348;53.392;-6.248;2023-05-07T00:38:14;100616.06;;;13.60;83.25
43707;BME280;61348;53.392;-6.248;2023-05-07T00:40:41;100616.34;;;13.55;83.38
43707;BME280;61348;53.392;-6.248;2023-05-07T00:43:08;100622.28;;;13.54;83.66
43707;BME280;61348;53.392;-6.248;2023-05-07T00:45:35;100611.00;;;13.47;83.83
43707;BME280;61348;53.392;-6.248;2023-05-07T00:48:02;100610.59;;;13.45;84.11
43707;BME280;61348;53.392;-6.248;2023-05-07T00:50:30;100622.50;;;13.45;84.15
43707;BME280;61348;53.392;-6.248;2023-05-07T00:52:58;100617.75;;;13.46;84.58
43707;BME280;61348;53.392;-6.248;2023-05-07T00:55:25;100619.78;;;13.49;84.57
43707;BME280;61348;53.392;-6.248;2023-05-07T00:57:52;100627.84;;;13.54;84.61
43707;BME280;61348;53.392;-6.248;2023-05-07T01:00:19;100611.56;;;13.56;84.68
43707;BME280;61348;53.392;-6.248;2023-05-07T01:02:46;100622.34;;;13.57;84.68
43707;BME280;61348;53.392;-6.248;2023-05-07T01:05:15;100607.72;;;13.60;85.04
43707;BME280;61348;53.392;-6.248;2023-05-07T01:07:44;100623.19;;;13.61;85.10
43707;BME280;61348;53.392;-6.248;2023-05-07T01:10:11;100623.28;;;13.65;85.12
43707;BME280;61348;53.392;-6.248;2023-05-07T01:12:40;100625.69;;;13.66;85.13
43707;BME280;61348;53.392;-6.248;2023-05-07T01:15:08;100617.78;;;13.68;85.29
43707;BME280;61348;53.392;-6.248;2023-05-07T01:17:37;100614.19;;;13.68;85.47
43707;BME280;61348;53.392;-6.248;2023-05-07T01:20:05;100616.59;;;13.69;85.31
43707;BME280;61348;53.392;-6.248;2023-05-07T01:22:34;100611.03;;;13.69;85.50
43707;BME280;61348;53.392;-6.248;2023-05-07T01:25:04;100615.78;;;13.69;85.42
43707;BME280;61348;53.392;-6.248;2023-05-07T01:27:31;100625.69;;;13.66;85.49
43707;BME280;61348;53.392;-6.248;2023-05-07T01:29:59;100635.22;;;13.65;85.62
43707;BME280;61348;53.392;-6.248;2023-05-07T01:35:18;100629.66;;;13.65;85.63
43707;BME280;61348;53.392;-6.248;2023-05-07T01:37:47;100629.22;;;13.63;86.01
43707;BME280;61348;53.392;-6.248;2023-05-07T01:40:14;100631.13;;;13.59;85.97
43707;BME280;61348;53.392;-6.248;2023-05-07T01:42:43;100621.16;;;13.58;86.37
43707;BME280;61348;53.392;-6.248;2023-05-07T01:45:10;100633.47;;;13.57;86.14
43707;BME280;61348;53.392;-6.248;2023-05-07T01:47:37;100634.63;;;13.56;86.07
43707;BME280;61348;53.392;-6.248;2023-05-07T01:50:07;100624.69;;;13.55;86.31
43707;BME280;61348;53.392;-6.248;2023-05-07T01:52:38;100627.41;;;13.52;86.35
43707;BME280;61348;53.392;-6.248;2023-05-07T01:55:06;100628.22;;;13.52;86.58
43707;BME280;61348;53.392;-6.248;2023-05-07T01:57:33;100631.00;;;13.52;86.52
43707;BME280;61348;53.392;-6.248;2023-05-07T01:59:59;100628.22;;;13.52;86.73
43707;BME280;61348;53.392;-6.248;2023-05-07T02:02:26;100635.75;;;13.52;86.68
43707;BME280;61348;53.392;-6.248;2023-05-07T02:04:53;100629.38;;;13.51;86.72
43707;BME280;61348;53.392;-6.248;2023-05-07T02:07:20;100632.53;;;13.50;86.88
43707;BME280;61348;53.392;-6.248;2023-05-07T02:09:47;100650.47;;;13.52;87.02
43707;BME280;61348;53.392;-6.248;2023-05-07T02:12:13;100642.94;;;13.53;86.83
43707;BME280;61348;53.392;-6.248;2023-05-07T02:14:40;100650.47;;;13.52;86.68
43707;BME280;61348;53.392;-6.248;2023-05-07T02:17:07;100644.53;;;13.54;86.52
43707;BME280;61348;53.392;-6.248;2023-05-07T02:19:34;100647.31;;;13.54;86.77
43707;BME280;61348;53.392;-6.248;2023-05-07T02:22:01;100652.06;;;13.53;86.71
43707;BME280;61348;53.392;-6.248;2023-05-07T02:24:28;100650.47;;;13.52;86.82
43707;BME280;61348;53.392;-6.248;2023-05-07T02:26:55;100651.69;;;13.55;86.76
43707;BME280;61348;53.392;-6.248;2023-05-07T02:29:21;100648.09;;;13.54;86.57
43707;BME280;61348;53.392;-6.248;2023-05-07T02:31:48;100649.28;;;13.53;86.44
43707;BME280;61348;53.392;-6.248;2023-05-07T02:34:20;100646.44;;;13.50;86.67
43707;BME280;61348;53.392;-6.248;2023-05-07T02:36:46;100642.03;;;13.49;86.50
43707;BME280;61348;53.392;-6.248;2023-05-07T02:39:13;100648.34;;;13.46;86.59
43707;BME280;61348;53.392;-6.248;2023-05-07T02:41:40;100644.31;;;13.43;86.85
43707;BME280;61348;53.392;-6.248;2023-05-07T02:44:07;100641.53;;;13.43;87.00
43707;BME280;61348;53.392;-6.248;2023-05-07T02:46:34;100644.31;;;13.43;86.94
43707;BME280;61348;53.392;-6.248;2023-05-07T02:49:01;100637.16;;;13.42;86.87
43707;BME280;61348;53.392;-6.248;2023-05-07T02:51:27;100642.25;;;13.40;86.84
43707;BME280;61348;53.392;-6.248;2023-05-07T02:53:55;100640.97;;;13.34;86.85
43707;BME280;61348;53.392;-6.248;2023-05-07T02:56:21;100648.31;;;13.26;87.12
43707;BME280;61348;53.392;-6.248;2023-05-07T02:58:48;100645.50;;;13.23;87.49
43707;BME280;61348;53.392;-6.248;2023-05-07T03:01:15;100646.22;;;13.20;87.47
43707;BME280;61348;53.392;-6.248;2023-05-07T03:03:42;100644.53;;;13.15;87.62
43707;BME280;61348;53.392;-6.248;2023-05-07T03:06:09;100640.06;;;13.11;87.82
43707;BME280;61348;53.392;-6.248;2023-05-07T03:08:36;100640.00;;;13.07;88.17
43707;BME280;61348;53.392;-6.248;2023-05-07T03:11:03;100644.63;;;13.03;88.28
43707;BME280;61348;53.392;-6.248;2023-05-07T03:13:30;100642.94;;;12.99;88.07
43707;BME280;61348;53.392;-6.248;2023-05-07T03:15:56;100651.56;;;12.94;88.26
43707;BME280;61348;53.392;-6.248;2023-05-07T03:18:23;100656.22;;;12.90;88.51
43707;BME280;61348;53.392;-6.248;2023-05-07T03:20:51;100653.09;;;12.91;88.58
43707;BME280;61348;53.392;-6.248;2023-05-07T03:23:18;100655.06;;;12.91;88.64
43707;BME280;61348;53.392;-6.248;2023-05-07T03:25:45;100658.22;;;12.89;88.84
43707;BME280;61348;53.392;-6.248;2023-05-07T03:28:12;100661.00;;;12.89;89.01
43707;BME280;61348;53.392;-6.248;2023-05-07T03:30:38;100659.00;;;12.90;89.10
43707;BME280;61348;53.392;-6.248;2023-05-07T03:33:05;100656.69;;;12.92;89.11
43707;BME280;61348;53.392;-6.248;2023-05-07T03:35:32;100663.94;;;12.96;89.26
43707;BME280;61348;53.392;-6.248;2023-05-07T03:37:59;100665.56;;;12.97;89.22
43707;BME280;61348;53.392;-6.248;2023-05-07T03:40:25;100661.59;;;12.98;89.36
43707;BME280;61348;53.392;-6.248;2023-05-07T03:42:52;100668.41;;;13.01;89.27
43707;BME280;61348;53.392;-6.248;2023-05-07T03:45:19;100669.22;;;13.01;88.99
43707;BME280;61348;53.392;-6.248;2023-05-07T03:47:46;100665.63;;;13.01;89.17
43707;BME280;61348;53.392;-6.248;2023-05-07T03:50:13;100668.41;;;13.01;89.21
43707;BME280;61348;53.392;-6.248;2023-05-07T03:52:39;100672.81;;;13.02;89.04
43707;BME280;61348;53.392;-6.248;2023-05-07T03:55:07;100675.19;;;13.03;88.86
43707;BME280;61348;53.392;-6.248;2023-05-07T03:57:34;100681.19;;;13.05;88.67
43707;BME280;61348;53.392;-6.248;2023-05-07T04:00:01;100676.81;;;13.04;88.64
43707;BME280;61348;53.392;-6.248;2023-05-07T04:02:28;100680.41;;;13.05;88.32
43707;BME280;61348;53.392;-6.248;2023-05-07T04:04:55;100684.34;;;13.04;88.32
43707;BME280;61348;53.392;-6.248;2023-05-07T04:07:22;100679.59;;;13.04;88.19
43707;BME280;61348;53.392;-6.248;2023-05-07T04:09:49;100678.78;;;13.04;88.20
43707;BME280;61348;53.392;-6.248;2023-05-07T04:12:16;100675.19;;;13.03;88.12
43707;BME280;61348;53.392;-6.248;2023-05-07T04:14:43;100679.94;;;13.03;87.94
43707;BME280;61348;53.392;-6.248;2023-05-07T04:17:10;100673.59;;;13.02;88.17
43707;BME280;61348;53.392;-6.248;2023-05-07T04:19:37;100667.25;;;13.02;87.88
43707;BME280;61348;53.392;-6.248;2023-05-07T04:22:04;100665.63;;;13.01;88.05
43707;BME280;61348;53.392;-6.248;2023-05-07T04:24:31;100685.16;;;13.04;88.07
43707;BME280;61348;53.392;-6.248;2023-05-07T04:26:59;100686.44;;;13.07;87.77
43707;BME280;61348;53.392;-6.248;2023-05-07T04:29:26;100689.66;;;13.09;87.54
43707;BME280;61348;53.392;-6.248;2023-05-07T04:31:53;100692.81;;;13.07;87.68
43707;BME280;61348;53.392;-6.248;2023-05-07T04:34:22;100692.00;;;13.07;87.19
43707;BME280;61348;53.392;-6.248;2023-05-07T04:36:49;100699.88;;;13.05;87.43
43707;BME280;61348;53.392;-6.248;2023-05-07T04:39:16;100689.47;;;13.02;87.48
43707;BME280;61348;53.392;-6.248;2023-05-07T04:41:42;100691.81;;;13.00;87.60
43707;BME280;61348;53.392;-6.248;2023-05-07T04:44:09;100688.22;;;12.99;87.69
43707;BME280;61348;53.392;-6.248;2023-05-07T04:46:37;100699.06;;;13.04;87.42
43707;BME280;61348;53.392;-6.248;2023-05-07T04:49:04;100703.13;;;13.07;87.44
43707;BME280;61348;53.392;-6.248;2023-05-07T04:51:32;100703.44;;;13.05;87.10
43707;BME280;61348;53.392;-6.248;2023-05-07T04:53:59;100705.44;;;13.05;86.95
43707;BME280;61348;53.392;-6.248;2023-05-07T04:56:28;100694.31;;;13.05;87.30
43707;BME280;61348;53.392;-6.248;2023-05-07T04:58:55;100703.13;;;13.07;87.04
43707;BME280;61348;53.392;-6.248;2023-05-07T05:01:22;100700.78;;;13.09;86.86
43707;BME280;61348;53.392;-6.248;2023-05-07T05:03:49;100697.88;;;13.05;86.83
43707;BME280;61348;53.392;-6.248;2023-05-07T05:06:16;100701.47;;;13.06;86.96
43707;BME280;61348;53.392;-6.248;2023-05-07T05:08:42;100701.47;;;13.06;86.78
43707;BME280;61348;53.392;-6.248;2023-05-07T05:11:10;100704.25;;;13.06;86.60
43707;BME280;61348;53.392;-6.248;2023-05-07T05:13:36;100699.88;;;13.05;86.58
43707;BME280;61348;53.392;-6.248;2023-05-07T05:16:04;100704.53;;;13.01;86.52
43707;BME280;61348;53.392;-6.248;2023-05-07T05:18:30;100695.66;;;12.95;86.90
43707;BME280;61348;53.392;-6.248;2023-05-07T05:20:57;100705.97;;;12.95;86.84
43707;BME280;61348;53.392;-6.248;2023-05-07T05:23:24;100704.38;;;12.94;87.06
43707;BME280;61348;53.392;-6.248;2023-05-07T05:25:55;100705.19;;;12.94;86.97
43707;BME280;61348;53.392;-6.248;2023-05-07T05:28:23;100710.75;;;12.94;87.09
43707;BME280;61348;53.392;-6.248;2023-05-07T05:30:50;100712.28;;;12.92;86.94
43707;BME280;61348;53.392;-6.248;2023-05-07T05:33:17;100712.19;;;12.88;87.20
43707;BME280;61348;53.392;-6.248;2023-05-07T05:35:43;100710.94;;;12.86;87.38
43707;BME280;61348;53.392;-6.248;2023-05-07T05:38:10;100718.00;;;12.83;87.89
43707;BME280;61348;53.392;-6.248;2023-05-07T05:40:37;100716.94;;;12.88;87.93
43707;BME280;61348;53.392;-6.248;2023-05-07T05:43:04;100717.00;;;12.91;88.02
43707;BME280;61348;53.392;-6.248;2023-05-07T05:45:30;100712.34;;;12.95;87.96
43707;BME280;61348;53.392;-6.248;2023-05-07T05:47:57;100715.63;;;13.01;87.88
43707;BME280;61348;53.392;-6.248;2023-05-07T05:50:24;100713.38;;;13.06;87.43
43707;BME280;61348;53.392;-6.248;2023-05-07T05:52:51;100715.91;;;13.11;87.43
43707;BME280;61348;53.392;-6.248;2023-05-07T05:55:18;100723.25;;;13.19;87.27
43707;BME280;61348;53.392;-6.248;2023-05-07T05:57:45;100714.19;;;13.22;87.12
43707;BME280;61348;53.392;-6.248;2023-05-07T06:00:12;100717.78;;;13.23;87.13
43707;BME280;61348;53.392;-6.248;2023-05-07T06:02:40;100720.56;;;13.23;87.31
43707;BME280;61348;53.392;-6.248;2023-05-07T06:05:07;100717.34;;;13.21;87.43
43707;BME280;61348;53.392;-6.248;2023-05-07T06:07:34;100718.50;;;13.20;87.52
43707;BME280;61348;53.392;-6.248;2023-05-07T06:10:01;100720.84;;;13.18;87.56
43707;BME280;61348;53.392;-6.248;2023-05-07T06:12:28;100719.22;;;13.17;87.85
43707;BME280;61348;53.392;-6.248;2023-05-07T06:14:55;100726.41;;;13.18;87.63
43707;BME280;61348;53.392;-6.248;2023-05-07T06:17:22;100732.31;;;13.16;87.68
43707;BME280;61348;53.392;-6.248;2023-05-07T06:19:49;100743.81;;;13.15;87.56
43707;BME280;61348;53.392;-6.248;2023-05-07T06:22:16;100731.50;;;13.16;87.66
43707;BME280;61348;53.392;-6.248;2023-05-07T06:24:42;100729.63;;;13.20;87.53
43707;BME280;61348;53.392;-6.248;2023-05-07T06:27:09;100736.06;;;13.24;87.45
43707;BME280;61348;53.392;-6.248;2023-05-07T06:29:36;100747.25;;;13.27;87.54
43707;BME280;61348;53.392;-6.248;2023-05-07T06:32:11;100745.00;;;13.33;87.55
43707;BME280;61348;53.392;-6.248;2023-05-07T06:34:38;100747.88;;;13.36;87.31
43707;BME280;61348;53.392;-6.248;2023-05-07T06:37:05;100758.03;;;13.48;87.25
43707;BME280;61348;53.392;-6.248;2023-05-07T06:39:32;100757.91;;;13.60;86.77
43707;BME280;61348;53.392;-6.248;2023-05-07T06:42:00;100769.72;;;13.73;86.54
43707;BME280;61348;53.392;-6.248;2023-05-07T06:44:28;100774.69;;;13.83;86.11
43707;BME280;61348;53.392;-6.248;2023-05-07T06:46:55;100774.91;;;13.93;85.94
43707;BME280;61348;53.392;-6.248;2023-05-07T06:49:21;100777.09;;;14.03;85.75
43707;BME280;61348;53.392;-6.248;2023-05-07T06:51:48;100783.31;;;14.16;85.70
43707;BME280;61348;53.392;-6.248;2023-05-07T06:54:16;100792.31;;;14.29;85.18
43707;BME280;61348;53.392;-6.248;2023-05-07T06:56:43;100794.50;;;14.39;84.96
43707;BME280;61348;53.392;-6.248;2023-05-07T06:59:09;100786.28;;;14.46;84.79
43707;BME280;61348;53.392;-6.248;2023-05-07T07:01:36;100795.13;;;14.51;84.71
43707;BME280;61348;53.392;-6.248;2023-05-07T07:04:04;100790.44;;;14.55;84.63
43707;BME280;61348;53.392;-6.248;2023-05-07T07:06:31;100800.84;;;14.58;84.54
43707;BME280;61348;53.392;-6.248;2023-05-07T07:08:59;100795.75;;;14.64;84.23
43707;BME280;61348;53.392;-6.248;2023-05-07T07:11:26;100791.91;;;14.72;84.10
43707;BME280;61348;53.392;-6.248;2023-05-07T07:13:53;100804.44;;;14.82;84.03
43707;BME280;61348;53.392;-6.248;2023-05-07T07:16:21;100811.38;;;14.91;84.04
43707;BME280;61348;53.392;-6.248;2023-05-07T07:18:48;100815.22;;;15.06;83.67
43707;BME280;61348;53.392;-6.248;2023-05-07T07:21:15;100804.97;;;15.13;83.07
43707;BME280;61348;53.392;-6.248;2023-05-07T07:23:41;100811.41;;;15.17;82.99
43707;BME280;61348;53.392;-6.248;2023-05-07T07:26:08;100807.84;;;15.20;82.80
43707;BME280;61348;53.392;-6.248;2023-05-07T07:28:42;100802.34;;;15.24;82.58
43707;BME280;61348;53.392;-6.248;2023-05-07T07:31:11;100804.38;;;15.27;82.24
43707;BME280;61348;53.392;-6.248;2023-05-07T07:33:39;100812.47;;;15.36;82.25
43707;BME280;61348;53.392;-6.248;2023-05-07T07:36:06;100811.88;;;15.46;81.87
43707;BME280;61348;53.392;-6.248;2023-05-07T07:38:34;100808.09;;;15.61;81.58
43707;BME280;61348;53.392;-6.248;2023-05-07T07:41:01;100815.91;;;15.78;81.45
43707;BME280;61348;53.392;-6.248;2023-05-07T07:43:29;100804.59;;;15.97;81.57
43707;BME280;61348;53.392;-6.248;2023-05-07T07:45:55;100809.19;;;16.12;80.94
43707;BME280;61348;53.392;-6.248;2023-05-07T07:48:22;100799.25;;;16.18;80.47
43707;BME280;61348;53.392;-6.248;2023-05-07T07:50:49;100812.88;;;16.23;79.76
43707;BME280;61348;53.392;-6.248;2023-05-07T07:53:18;100809.72;;;16.25;78.99
43707;BME280;61348;53.392;-6.248;2023-05-07T07:55:45;100796.16;;;16.27;78.76
43707;BME280;61348;53.392;-6.248;2023-05-07T07:58:12;100805.00;;;16.32;77.94
43707;BME280;61348;53.392;-6.248;2023-05-07T08:00:39;100809.44;;;16.37;78.07
43707;BME280;61348;53.392;-6.248;2023-05-07T08:03:08;100812.75;;;16.50;77.56
43707;BME280;61348;53.392;-6.248;2023-05-07T08:05:35;100812.53;;;16.62;77.36
43707;BME280;61348;53.392;-6.248;2023-05-07T08:08:03;100820.25;;;16.75;76.50
43707;BME280;61348;53.392;-6.248;2023-05-07T08:10:30;100811.63;;;16.94;76.10
43707;BME280;61348;53.392;-6.248;2023-05-07T08:13:01;100820.19;;;17.12;74.94
43707;BME280;61348;53.392;-6.248;2023-05-07T08:15:29;100820.13;;;17.09;74.22
43707;BME280;61348;53.392;-6.248;2023-05-07T08:17:57;100821.59;;;16.92;73.36
43707;BME280;61348;53.392;-6.248;2023-05-07T08:20:26;100809.59;;;16.88;73.18
43707;BME280;61348;53.392;-6.248;2023-05-07T08:22:53;100811.53;;;17.31;72.83
43707;BME280;61348;53.392;-6.248;2023-05-07T08:25:20;100805.97;;;18.07;71.35
43707;BME280;61348;53.392;-6.248;2023-05-07T08:27:47;100813.78;;;18.80;70.24
43707;BME280;61348;53.392;-6.248;2023-05-07T08:30:14;100825.00;;;19.37;69.13
43707;BME280;61348;53.392;-6.248;2023-05-07T08:32:41;100816.88;;;19.88;67.91
43707;BME280;61348;53.392;-6.248;2023-05-07T08:35:08;100811.53;;;20.26;66.22
43707;BME280;61348;53.392;-6.248;2023-05-07T08:37:35;100820.16;;;20.63;64.82
43707;BME280;61348;53.392;-6.248;2023-05-07T08:40:02;100823.56;;;20.99;63.84
43707;BME280;61348;53.392;-6.248;2023-05-07T08:42:35;100815.13;;;21.43;62.68
43707;BME280;61348;53.392;-6.248;2023-05-07T08:45:04;100826.78;;;21.86;61.08
43707;BME280;61348;53.392;-6.248;2023-05-07T08:47:40;100832.19;;;22.07;60.57
43707;BME280;61348;53.392;-6.248;2023-05-07T08:50:09;100828.50;;;22.40;59.34
43707;BME280;61348;53.392;-6.248;2023-05-07T08:52:36;100827.84;;;22.90;57.43
43707;BME280;61348;53.392;-6.248;2023-05-07T08:55:03;100834.78;;;23.09;56.41
43707;BME280;61348;53.392;-6.248;2023-05-07T08:57:31;100845.22;;;23.61;55.66
43707;BME280;61348;53.392;-6.248;2023-05-07T09:00:03;100837.75;;;24.14;54.10
43707;BME280;61348;53.392;-6.248;2023-05-07T09:02:30;100843.78;;;24.52;53.10
43707;BME280;61348;53.392;-6.248;2023-05-07T09:04:57;100839.03;;;24.85;51.92
43707;BME280;61348;53.392;-6.248;2023-05-07T09:07:25;100840.66;;;25.02;50.78
43707;BME280;61348;53.392;-6.248;2023-05-07T09:09:52;100847.09;;;25.18;50.38
43707;BME280;61348;53.392;-6.248;2023-05-07T09:12:21;100842.16;;;25.22;49.46
43707;BME280;61348;53.392;-6.248;2023-05-07T09:14:49;100836.81;;;25.24;49.34
43707;BME280;61348;53.392;-6.248;2023-05-07T09:17:16;100835.50;;;25.29;48.47
43707;BME280;61348;53.392;-6.248;2023-05-07T09:19:44;100842.75;;;25.30;48.13
43707;BME280;61348;53.392;-6.248;2023-05-07T09:22:14;100842.94;;;25.07;47.84
43707;BME280;61348;53.392;-6.248;2023-05-07T09:24:47;100847.56;;;24.45;48.90
43707;BME280;61348;53.392;-6.248;2023-05-07T09:27:14;100839.72;;;23.94;48.36
43707;BME280;61348;53.392;-6.248;2023-05-07T09:29:41;100841.53;;;23.15;49.42
43707;BME280;61348;53.392;-6.248;2023-05-07T09:32:09;100839.72;;;22.48;50.42
43707;BME280;61348;53.392;-6.248;2023-05-07T09:34:36;100842.16;;;21.78;51.21
43707;BME280;61348;53.392;-6.248;2023-05-07T09:37:04;100827.44;;;21.15;52.38
43707;BME280;61348;53.392;-6.248;2023-05-07T09:39:47;100834.22;;;20.67;53.71
43707;BME280;61348;53.392;-6.248;2023-05-07T09:42:14;100836.53;;;20.82;53.77
43707;BME280;61348;53.392;-6.248;2023-05-07T09:44:43;100834.19;;;21.29;54.09
43707;BME280;61348;53.392;-6.248;2023-05-07T09:47:11;100835.00;;;22.07;53.04
43707;BME280;61348;53.392;-6.248;2023-05-07T09:49:46;100832.22;;;22.64;51.62
43707;BME280;61348;53.392;-6.248;2023-05-07T09:52:14;100834.16;;;22.10;52.02
43707;BME280;61348;53.392;-6.248;2023-05-07T09:54:43;100836.59;;;21.30;52.80
43707;BME280;61348;53.392;-6.248;2023-05-07T09:57:11;100833.47;;;20.55;53.39
43707;BME280;61348;53.392;-6.248;2023-05-07T09:59:43;100830.50;;;19.97;54.67
43707;BME280;61348;53.392;-6.248;2023-05-07T10:02:11;100838.25;;;19.47;55.55
43707;BME280;61348;53.392;-6.248;2023-05-07T10:04:39;100832.63;;;19.12;56.34
43707;BME280;61348;53.392;-6.248;2023-05-07T10:07:07;100840.66;;;18.89;56.77
43707;BME280;61348;53.392;-6.248;2023-05-07T10:09:35;100831.44;;;18.81;56.93
43707;BME280;61348;53.392;-6.248;2023-05-07T10:12:05;100821.00;;;18.81;57.15
43707;BME280;61348;53.392;-6.248;2023-05-07T10:14:33;100816.19;;;18.78;57.66
43707;BME280;61348;53.392;-6.248;2023-05-07T10:17:02;100814.59;;;18.70;58.27
43707;BME280;61348;53.392;-6.248;2023-05-07T10:19:29;100817.00;;;19.46;57.56
43707;BME280;61348;53.392;-6.248;2023-05-07T10:22:01;100815.19;;;20.12;55.87
43707;BME280;61348;53.392;-6.248;2023-05-07T10:24:32;100812.88;;;20.73;54.91
43707;BME280;61348;53.392;-6.248;2023-05-07T10:27:10;100808.88;;;21.25;53.73
43707;BME280;61348;53.392;-6.248;2023-05-07T10:34:56;100820.44;;;22.12;52.12
43707;BME280;61348;53.392;-6.248;2023-05-07T10:37:25;100824.63;;;22.31;51.69
43707;BME280;61348;53.392;-6.248;2023-05-07T10:39:52;100838.38;;;22.25;51.41
43707;BME280;61348;53.392;-6.248;2023-05-07T10:42:19;100833.00;;;22.04;51.77
43707;BME280;61348;53.392;-6.248;2023-05-07T10:44:46;100832.78;;;21.92;51.88
43707;BME280;61348;53.392;-6.248;2023-05-07T10:47:15;100824.53;;;21.70;52.30
43707;BME280;61348;53.392;-6.248;2023-05-07T10:52:17;100832.22;;;21.22;53.68
43707;BME280;61348;53.392;-6.248;2023-05-07T10:54:46;100827.56;;;21.01;54.09
43707;BME280;61348;53.392;-6.248;2023-05-07T10:59:58;100812.53;;;20.63;54.84
43707;BME280;61348;53.392;-6.248;2023-05-07T11:05:42;100814.72;;;20.31;55.48
43707;BME280;61348;53.392;-6.248;2023-05-07T11:08:09;100807.13;;;20.18;56.07
43707;BME280;61348;53.392;-6.248;2023-05-07T11:10:56;100809.13;;;20.21;56.35
43707;BME280;61348;53.392;-6.248;2023-05-07T11:13:44;100813.59;;;20.11;56.25
43707;BME280;61348;53.392;-6.248;2023-05-07T11:16:24;100821.66;;;20.09;56.97
43707;BME280;61348;53.392;-6.248;2023-05-07T11:18:55;100809.59;;;20.01;57.12
43707;BME280;61348;53.392;-6.248;2023-05-07T11:21:36;100824.50;;;19.91;56.70
43707;BME280;61348;53.392;-6.248;2023-05-07T11:24:05;100818.53;;;19.82;57.01
43707;BME280;61348;53.392;-6.248;2023-05-07T11:26:49;100817.75;;;19.75;57.07
43707;BME280;61348;53.392;-6.248;2023-05-07T11:29:18;100809.31;;;19.78;57.23
43707;BME280;61348;53.392;-6.248;2023-05-07T11:31:49;100808.09;;;19.79;57.04
43707;BME280;61348;53.392;-6.248;2023-05-07T11:34:23;100806.91;;;19.73;57.16
43707;BME280;61348;53.392;-6.248;2023-05-07T11:36:51;100812.13;;;19.71;57.45
43707;BME280;61348;53.392;-6.248;2023-05-07T11:39:33;100818.53;;;19.75;57.52
43707;BME280;61348;53.392;-6.248;2023-05-07T11:42:01;100823.75;;;19.73;57.34
43707;BME280;61348;53.392;-6.248;2023-05-07T11:44:44;100816.16;;;19.70;57.03
43707;BME280;61348;53.392;-6.248;2023-05-07T11:47:22;100827.41;;;19.63;57.19
43707;BME280;61348;53.392;-6.248;2023-05-07T11:49:50;100831.41;;;19.62;57.21
43707;BME280;61348;53.392;-6.248;2023-05-07T11:52:18;100828.59;;;19.66;57.83
43707;BME280;61348;53.392;-6.248;2023-05-07T11:55:03;100826.19;;;19.71;58.21
43707;BME280;61348;53.392;-6.248;2023-05-07T11:57:32;100839.44;;;19.74;59.01
43707;BME280;61348;53.392;-6.248;2023-05-07T12:00:00;100821.34;;;19.82;58.86
43707;BME280;61348;53.392;-6.248;2023-05-07T12:02:28;100828.13;;;19.88;59.17
43707;BME280;61348;53.392;-6.248;2023-05-07T12:04:55;100832.16;;;19.87;58.68
43707;BME280;61348;53.392;-6.248;2023-05-07T12:07:23;100821.69;;;19.98;58.03
43707;BME280;61348;53.392;-6.248;2023-05-07T12:09:51;100826.47;;;20.05;57.94
43707;BME280;61348;53.392;-6.248;2023-05-07T12:12:18;100835.31;;;20.03;57.28
43707;BME280;61348;53.392;-6.248;2023-05-07T12:14:45;100834.94;;;19.91;57.33
43707;BME280;61348;53.392;-6.248;2023-05-07T12:17:13;100827.38;;;19.70;57.34
43707;BME280;61348;53.392;-6.248;2023-05-07T12:19:42;100824.63;;;19.56;57.85
43707;BME280;61348;53.392;-6.248;2023-05-07T12:22:10;100820.97;;;19.59;58.03
43707;BME280;61348;53.392;-6.248;2023-05-07T12:24:47;100820.19;;;19.69;58.39
43707;BME280;61348;53.392;-6.248;2023-05-07T12:27:16;100817.31;;;19.83;58.56
43707;BME280;61348;53.392;-6.248;2023-05-07T12:29:49;100822.47;;;20.06;59.06
43707;BME280;61348;53.392;-6.248;2023-05-07T12:32:18;100814.38;;;20.22;58.48
43707;BME280;61348;53.392;-6.248;2023-05-07T12:34:47;100815.13;;;20.23;58.97
43707;BME280;61348;53.392;-6.248;2023-05-07T12:37:16;100809.09;;;20.38;59.73
43707;BME280;61348;53.392;-6.248;2023-05-07T12:39:49;100807.03;;;20.46;59.45
43707;BME280;61348;53.392;-6.248;2023-05-07T12:42:33;100807.16;;;20.25;59.50
43707;BME280;61348;53.392;-6.248;2023-05-07T12:45:11;100810.72;;;20.32;59.77
43707;BME280;61348;53.392;-6.248;2023-05-07T12:47:43;100804.19;;;20.49;59.82
43707;BME280;61348;53.392;-6.248;2023-05-07T12:50:11;100801.78;;;20.51;59.74
43707;BME280;61348;53.392;-6.248;2023-05-07T12:52:39;100796.94;;;20.52;59.70
43707;BME280;61348;53.392;-6.248;2023-05-07T12:55:07;100794.97;;;20.49;59.53
43707;BME280;61348;53.392;-6.248;2023-05-07T12:57:39;100792.91;;;20.56;59.00
43707;BME280;61348;53.392;-6.248;2023-05-07T13:00:07;100788.84;;;20.61;58.41
43707;BME280;61348;53.392;-6.248;2023-05-07T13:02:34;100793.28;;;20.62;58.21